Time;durP1;ratioP1;P1;durP2;ratioP2;P2;SDS_P1;SDS_P2;PMS_P1;PMS_P2;Temp;Humidity;BMP_temperature;BMP_pressure;BME280_temperature;BME280_humidity;BME280_pressure;Samples;Min_cycle;Max_cycle;Signal;HPM_P1;HPM_P2
2022/04/08 00:01:54;;;;;;;11.43;3.38;;;;;;;;;;6181987;28;20062;-69
2022/04/08 00:04:58;;;;;;;7.95;2.72;;;;;;;;;;6188506;28;20140;-69
2022/04/08 00:07:59;;;;;;;9.15;3.05;;;;;;;;;;6190071;28;20133;-69
2022/04/08 00:11:01;;;;;;;8.55;2.97;;;;;;;;;;6187395;28;20140;-69
2022/04/08 00:14:04;;;;;;;10.00;2.50;;;;;;;;;;6192760;28;20047;-69
2022/04/08 00:17:06;;;;;;;14.60;2.63;;;;;;;;;;6194409;28;20081;-69
2022/04/08 00:20:10;;;;;;;11.05;2.95;;;;;;;;;;6196754;28;20125;-69
2022/04/08 00:23:12;;;;;;;10.27;2.50;;;;;;;;;;6189340;28;20038;-68
2022/04/08 00:26:14;;;;;;;7.45;2.95;;;;;;;;;;6182713;28;20065;-69
2022/04/08 00:29:16;;;;;;;8.20;3.35;;;;;;;;;;6185620;28;20128;-69
2022/04/08 00:32:17;;;;;;;12.50;3.65;;;;;;;;;;6177911;28;20125;-69
2022/04/08 00:35:20;;;;;;;11.13;3.28;;;;;;;;;;6177388;28;20050;-68
2022/04/08 00:38:22;;;;;;;11.05;3.35;;;;;;;;;;6181583;28;20129;-69
2022/04/08 00:41:24;;;;;;;9.68;3.35;;;;;;;;;;6182401;28;20047;-68
2022/04/08 00:44:25;;;;;;;9.32;3.25;;;;;;;;;;6184073;28;20145;-70
2022/04/08 00:47:27;;;;;;;8.52;3.30;;;;;;;;;;6184203;28;20494;-70
2022/04/08 00:50:30;;;;;;;10.18;3.03;;;;;;;;;;6185275;28;20081;-69
2022/04/08 00:53:32;;;;;;;10.77;3.85;;;;;;;;;;6185606;28;20047;-69
2022/04/08 00:56:34;;;;;;;9.52;3.42;;;;;;;;;;6184113;28;20050;-69
2022/04/08 00:59:36;;;;;;;6.97;3.40;;;;;;;;;;6184579;28;20190;-69
2022/04/08 01:02:38;;;;;;;8.77;3.72;;;;;;;;;;6186593;28;20055;-69
2022/04/08 01:05:41;;;;;;;7.43;3.30;;;;;;;;;;6184332;28;20503;-69
2022/04/08 01:08:43;;;;;;;11.52;3.53;;;;;;;;;;6186178;28;20062;-69
2022/04/08 01:11:45;;;;;;;9.68;3.08;;;;;;;;;;6188303;28;20046;-69
2022/04/08 01:14:46;;;;;;;8.38;3.50;;;;;;;;;;6187941;28;20173;-69
2022/04/08 01:17:49;;;;;;;7.72;3.30;;;;;;;;;;6189191;28;20043;-69
2022/04/08 01:20:52;;;;;;;10.75;3.47;;;;;;;;;;6177919;28;20047;-69
2022/04/08 01:23:56;;;;;;;8.37;3.50;;;;;;;;;;6180023;28;20141;-69
2022/04/08 01:26:59;;;;;;;13.43;3.75;;;;;;;;;;6185429;28;20174;-69
2022/04/08 01:30:01;;;;;;;11.10;3.47;;;;;;;;;;6179595;28;20193;-69
2022/04/08 01:33:03;;;;;;;11.52;3.70;;;;;;;;;;6181670;28;20047;-69
2022/04/08 01:36:05;;;;;;;7.55;2.90;;;;;;;;;;6183336;28;20062;-69
2022/04/08 01:39:07;;;;;;;11.75;3.00;;;;;;;;;;6187350;28;20137;-70
2022/04/08 01:42:10;;;;;;;10.55;2.92;;;;;;;;;;6187748;28;20178;-69
2022/04/08 01:45:12;;;;;;;10.43;2.72;;;;;;;;;;6187243;28;20145;-69
2022/04/08 01:48:13;;;;;;;9.27;2.90;;;;;;;;;;6184152;28;20077;-69
2022/04/08 01:51:15;;;;;;;12.55;3.00;;;;;;;;;;6176337;28;20054;-69
2022/04/08 01:54:17;;;;;;;6.75;2.80;;;;;;;;;;6182614;28;20047;-69
2022/04/08 01:57:23;;;;;;;12.02;2.75;;;;;;;;;;6178839;28;20132;-69
2022/04/08 02:00:25;;;;;;;9.68;3.08;;;;;;;;;;6181527;28;20200;-69
2022/04/08 02:03:27;;;;;;;8.23;2.80;;;;;;;;;;6182604;28;20600;-69
2022/04/08 02:06:28;;;;;;;13.00;3.63;;;;;;;;;;6183920;28;20499;-69
2022/04/08 02:09:30;;;;;;;10.15;2.80;;;;;;;;;;6183979;28;20139;-69
2022/04/08 02:12:33;;;;;;;10.88;2.95;;;;;;;;;;6183773;28;20490;-69
2022/04/08 02:15:35;;;;;;;11.77;2.80;;;;;;;;;;6186067;28;20047;-69
2022/04/08 02:18:37;;;;;;;7.28;2.78;;;;;;;;;;6181522;28;20054;-69
2022/04/08 02:21:38;;;;;;;8.02;3.22;;;;;;;;;;6180081;28;20558;-70
2022/04/08 02:24:40;;;;;;;10.13;2.72;;;;;;;;;;6181639;28;20521;-70
2022/04/08 02:27:43;;;;;;;8.82;2.55;;;;;;;;;;6186903;28;21970;-69
2022/04/08 02:30:45;;;;;;;10.77;2.80;;;;;;;;;;6186371;28;20141;-69
2022/04/08 02:33:47;;;;;;;8.48;2.60;;;;;;;;;;6182251;28;20136;-69
2022/04/08 02:36:50;;;;;;;12.15;3.42;;;;;;;;;;6182241;28;20074;-70
2022/04/08 02:39:52;;;;;;;6.65;2.38;;;;;;;;;;6182471;28;20078;-70
2022/04/08 02:42:55;;;;;;;10.82;2.85;;;;;;;;;;6185421;28;20170;-70
2022/04/08 02:45:57;;;;;;;5.57;2.40;;;;;;;;;;6184734;28;20054;-70
2022/04/08 02:48:58;;;;;;;10.32;2.80;;;;;;;;;;6185828;28;20129;-69
2022/04/08 02:52:00;;;;;;;7.35;3.03;;;;;;;;;;6188760;28;20160;-69
2022/04/08 02:55:01;;;;;;;14.60;3.15;;;;;;;;;;6187710;28;20050;-69
2022/04/08 02:58:05;;;;;;;9.95;2.80;;;;;;;;;;6189773;28;20050;-69
2022/04/08 03:01:06;;;;;;;8.93;3.60;;;;;;;;;;6182233;28;20050;-69
2022/04/08 03:04:08;;;;;;;11.13;3.08;;;;;;;;;;6176499;28;20185;-69
2022/04/08 03:07:10;;;;;;;8.65;3.00;;;;;;;;;;6181695;28;20050;-69
2022/04/08 03:10:13;;;;;;;9.20;3.35;;;;;;;;;;6183755;28;20051;-70
2022/04/08 03:13:16;;;;;;;10.75;3.60;;;;;;;;;;6183264;28;20108;-69
2022/04/08 03:16:17;;;;;;;7.03;2.90;;;;;;;;;;6181603;28;20038;-70
2022/04/08 03:19:19;;;;;;;8.32;3.50;;;;;;;;;;6177311;28;20051;-70
2022/04/08 03:22:20;;;;;;;7.40;3.30;;;;;;;;;;6175397;28;20197;-70
2022/04/08 03:25:22;;;;;;;9.82;3.35;;;;;;;;;;6176091;28;20566;-69
2022/04/08 03:28:25;;;;;;;8.07;4.03;;;;;;;;;;6176728;28;20050;-69
2022/04/08 03:31:27;;;;;;;10.73;3.58;;;;;;;;;;6179106;28;20130;-69
2022/04/08 03:34:29;;;;;;;15.32;4.05;;;;;;;;;;6180030;28;20606;-69
2022/04/08 03:37:31;;;;;;;7.38;3.08;;;;;;;;;;6182761;28;20049;-69
2022/04/08 03:40:34;;;;;;;11.65;3.83;;;;;;;;;;6185360;28;20165;-70
2022/04/08 03:43:37;;;;;;;9.38;3.35;;;;;;;;;;6186526;28;20141;-70
2022/04/08 03:46:41;;;;;;;10.93;3.72;;;;;;;;;;6188206;28;20140;-69
2022/04/08 03:49:43;;;;;;;9.98;3.63;;;;;;;;;;6189036;28;20133;-70
2022/04/08 03:52:44;;;;;;;12.70;3.80;;;;;;;;;;6185752;28;20054;-69
2022/04/08 03:55:46;;;;;;;9.43;4.22;;;;;;;;;;6189321;28;20101;-69
2022/04/08 03:58:49;;;;;;;10.00;3.63;;;;;;;;;;6192186;28;20094;-70
2022/04/08 04:01:51;;;;;;;15.35;3.85;;;;;;;;;;6193172;28;20054;-69
2022/04/08 04:04:55;;;;;;;8.15;3.92;;;;;;;;;;6193782;28;20058;-69
2022/04/08 04:07:58;;;;;;;16.20;4.15;;;;;;;;;;6195125;28;20178;-69
2022/04/08 04:11:00;;;;;;;5.50;3.45;;;;;;;;;;6195699;28;20050;-69
2022/04/08 04:14:03;;;;;;;12.07;4.50;;;;;;;;;;6197165;28;20050;-69
2022/04/08 04:17:05;;;;;;;10.70;3.95;;;;;;;;;;6180972;28;20499;-69
2022/04/08 04:20:08;;;;;;;11.15;4.18;;;;;;;;;;6178784;28;20517;-69
2022/04/08 04:23:10;;;;;;;10.75;4.13;;;;;;;;;;6183279;28;20897;-70
2022/04/08 04:26:11;;;;;;;9.95;3.72;;;;;;;;;;6183742;28;20126;-69
2022/04/08 04:29:14;;;;;;;11.70;5.22;;;;;;;;;;6181112;28;20137;-69
2022/04/08 04:32:18;;;;;;;13.85;4.55;;;;;;;;;;6183594;28;20059;-69
2022/04/08 04:35:20;;;;;;;22.25;5.45;;;;;;;;;;6183326;28;20166;-69
2022/04/08 04:38:21;;;;;;;11.18;3.85;;;;;;;;;;6185463;28;20179;-69
2022/04/08 04:41:23;;;;;;;12.40;4.43;;;;;;;;;;6184050;28;20170;-69
2022/04/08 04:44:27;;;;;;;11.00;4.30;;;;;;;;;;6185317;28;20249;-69
2022/04/08 04:47:28;;;;;;;;;;;;;;;;;;6185138;28;20057;-69
2022/04/08 04:50:30;;;;;;;10.52;5.53;;;;;;;;;;6186094;28;19922;-69
2022/04/08 04:53:32;;;;;;;10.65;5.10;;;;;;;;;;6184783;28;20051;-69
2022/04/08 04:56:33;;;;;;;11.48;5.28;;;;;;;;;;6187168;28;20513;-69
2022/04/08 04:59:36;;;;;;;10.00;5.57;;;;;;;;;;6186534;28;20057;-69
2022/04/08 05:02:38;;;;;;;13.48;6.70;;;;;;;;;;6189291;28;20491;-69
2022/04/08 05:05:40;;;;;;;11.48;5.95;;;;;;;;;;6187406;28;20050;-68
2022/04/08 05:08:41;;;;;;;18.25;6.75;;;;;;;;;;6190485;28;20129;-69
2022/04/08 05:11:43;;;;;;;14.45;7.50;;;;;;;;;;6189573;28;20046;-69
2022/04/08 05:14:46;;;;;;;17.35;7.63;;;;;;;;;;6189966;28;20053;-70
2022/04/08 05:17:47;;;;;;;12.27;7.85;;;;;;;;;;6178646;28;20569;-71
2022/04/08 05:20:52;;;;;;;17.33;8.30;;;;;;;;;;6181693;28;20133;-70
2022/04/08 05:23:53;;;;;;;14.63;8.63;;;;;;;;;;6185932;28;20069;-71
2022/04/08 05:26:55;;;;;;;13.98;8.18;;;;;;;;;;6186995;28;20050;-71
2022/04/08 05:30:04;;;;;;;12.48;7.93;;;;;;;;;;6184127;28;20042;-70
2022/04/08 05:33:06;;;;;;;80.55;13.45;;;;;;;;;;6174206;28;20529;-74
2022/04/08 05:36:08;;;;;;;19.02;9.02;;;;;;;;;;6178507;28;20463;-69
2022/04/08 05:39:09;;;;;;;15.93;8.75;;;;;;;;;;6179653;28;20125;-71
2022/04/08 05:42:11;;;;;;;17.75;9.73;;;;;;;;;;6180442;28;20050;-72
2022/04/08 05:45:16;;;;;;;20.42;10.32;;;;;;;;;;6177862;28;20058;-71
2022/04/08 05:48:18;;;;;;;17.77;9.82;;;;;;;;;;6182338;28;20130;-71
2022/04/08 05:51:19;;;;;;;19.25;9.43;;;;;;;;;;6178720;28;20126;-72
2022/04/08 05:54:21;;;;;;;18.48;9.65;;;;;;;;;;6182454;28;20144;-72
2022/04/08 05:57:23;;;;;;;21.63;10.52;;;;;;;;;;6181401;28;20050;-72
2022/04/08 06:00:26;;;;;;;15.30;10.20;;;;;;;;;;6180948;28;20522;-72
2022/04/08 06:03:28;;;;;;;15.35;10.10;;;;;;;;;;6184452;28;20042;-71
2022/04/08 06:06:29;;;;;;;16.70;10.27;;;;;;;;;;6185173;28;20125;-71
2022/04/08 06:09:32;;;;;;;19.92;9.95;;;;;;;;;;6184353;28;20042;-74
2022/04/08 06:12:33;;;;;;;15.02;9.82;;;;;;;;;;6187573;28;20482;-73
2022/04/08 06:15:36;;;;;;;17.55;10.35;;;;;;;;;;6182566;28;20148;-73
2022/04/08 06:18:38;;;;;;;16.77;10.65;;;;;;;;;;6177158;28;20177;-74
2022/04/08 06:21:39;;;;;;;16.80;10.98;;;;;;;;;;6178350;28;20059;-73
2022/04/08 06:24:41;;;;;;;18.00;10.95;;;;;;;;;;6182034;28;20202;-73
2022/04/08 06:27:44;;;;;;;15.50;10.30;;;;;;;;;;6179061;28;20110;-74
2022/04/08 06:30:47;;;;;;;15.97;10.97;;;;;;;;;;6182079;28;20142;-73
2022/04/08 06:33:49;;;;;;;18.33;9.67;;;;;;;;;;6183702;28;20489;-73
2022/04/08 06:36:51;;;;;;;16.67;10.55;;;;;;;;;;6180802;28;20531;-72
2022/04/08 06:39:52;;;;;;;14.23;9.98;;;;;;;;;;6182513;28;20054;-73
2022/04/08 06:42:55;;;;;;;23.98;10.60;;;;;;;;;;6185132;28;20200;-73
2022/04/08 06:45:58;;;;;;;17.40;10.20;;;;;;;;;;6183491;28;20054;-80
2022/04/08 06:49:02;;;;;;;23.60;10.33;;;;;;;;;;6177958;28;20679;-78
2022/04/08 06:52:05;;;;;;;21.38;10.35;;;;;;;;;;6180298;28;20051;-84
2022/04/08 06:55:08;;;;;;;17.25;10.13;;;;;;;;;;6180543;28;20190;-84
2022/04/08 06:58:09;;;;;;;20.35;9.70;;;;;;;;;;6182204;28;20136;-72
2022/04/08 07:01:12;;;;;;;18.63;10.18;;;;;;;;;;6181708;28;20605;-71
2022/04/08 07:04:14;;;;;;;17.10;9.43;;;;;;;;;;6179039;28;20528;-72
2022/04/08 07:07:16;;;;;;;14.25;9.52;;;;;;;;;;6181150;28;20186;-72
2022/04/08 07:10:17;;;;;;;19.10;9.30;;;;;;;;;;6184254;28;20140;-72
2022/04/08 07:13:19;;;;;;;16.30;9.63;;;;;;;;;;6183646;28;20050;-72
2022/04/08 07:16:23;;;;;;;16.58;9.13;;;;;;;;;;6181906;28;20042;-71
2022/04/08 07:19:25;;;;;;;16.40;9.15;;;;;;;;;;6185428;28;20046;-71
2022/04/08 07:22:27;;;;;;;15.32;9.68;;;;;;;;;;6183236;28;20133;-71
2022/04/08 07:25:29;;;;;;;17.42;8.88;;;;;;;;;;6183645;28;20113;-72
2022/04/08 07:28:32;;;;;;;19.63;8.35;;;;;;;;;;6184711;28;20062;-72
2022/04/08 07:31:36;;;;;;;16.00;7.60;;;;;;;;;;6185690;28;20059;-72
2022/04/08 07:34:37;;;;;;;15.60;6.82;;;;;;;;;;6187686;28;20116;-72
2022/04/08 07:37:39;;;;;;;13.75;6.28;;;;;;;;;;6188305;28;20125;-72
2022/04/08 07:40:41;;;;;;;15.95;6.30;;;;;;;;;;6189109;28;20774;-72
2022/04/08 07:43:42;;;;;;;11.90;5.35;;;;;;;;;;6193290;28;20186;-72
2022/04/08 07:46:45;;;;;;;16.33;5.55;;;;;;;;;;6191703;28;20050;-73
2022/04/08 07:49:47;;;;;;;14.27;5.95;;;;;;;;;;6187774;28;20062;-73
2022/04/08 07:52:49;;;;;;;13.10;5.50;;;;;;;;;;6191559;28;20054;-73
2022/04/08 07:55:50;;;;;;;11.38;5.00;;;;;;;;;;6189779;28;20053;-72
2022/04/08 07:58:52;;;;;;;16.40;5.90;;;;;;;;;;6193769;28;20098;-72
2022/04/08 08:01:55;;;;;;;12.07;5.20;;;;;;;;;;6193213;28;20445;-73
2022/04/08 08:04:57;;;;;;;16.02;5.30;;;;;;;;;;6188946;28;20055;-71
2022/04/08 08:08:00;;;;;;;11.85;5.15;;;;;;;;;;6187573;28;20486;-71
2022/04/08 08:11:02;;;;;;;9.70;4.95;;;;;;;;;;6190855;28;20136;-72
2022/04/08 08:14:04;;;;;;;12.15;5.50;;;;;;;;;;6181608;28;20066;-72
2022/04/08 08:17:07;;;;;;;14.63;5.85;;;;;;;;;;6184154;28;20094;-72
2022/04/08 08:20:09;;;;;;;;;;;;;;;;;;6184650;28;20402;-71
2022/04/08 08:23:11;;;;;;;10.43;5.28;;;;;;;;;;6187284;28;19944;-70
2022/04/08 08:26:13;;;;;;;8.77;3.63;;;;;;;;;;6190638;28;20058;-71
2022/04/08 08:29:15;;;;;;;9.45;2.80;;;;;;;;;;6182826;28;20070;-71
2022/04/08 08:32:18;;;;;;;8.20;2.95;;;;;;;;;;6184588;28;20071;-72
2022/04/08 08:35:20;;;;;;;8.43;2.60;;;;;;;;;;6183776;28;20117;-71
2022/04/08 08:38:21;;;;;;;10.82;3.22;;;;;;;;;;6191076;28;20050;-71
2022/04/08 08:41:23;;;;;;;6.82;2.72;;;;;;;;;;6189197;28;20050;-71
2022/04/08 08:44:25;;;;;;;7.57;3.05;;;;;;;;;;6188314;28;20539;-72
2022/04/08 08:47:31;;;;;;;7.05;2.83;;;;;;;;;;6187841;28;20070;-71
2022/04/08 08:50:32;;;;;;;9.98;2.63;;;;;;;;;;6190976;28;20066;-72
2022/04/08 08:53:34;;;;;;;8.80;2.33;;;;;;;;;;6189048;28;20125;-71
2022/04/08 08:56:36;;;;;;;7.90;2.65;;;;;;;;;;6185924;28;20058;-71
2022/04/08 08:59:38;;;;;;;9.57;3.60;;;;;;;;;;6190836;28;20094;-71
2022/04/08 09:02:41;;;;;;;6.72;3.00;;;;;;;;;;6190563;28;20050;-71
2022/04/08 09:05:44;;;;;;;11.05;3.30;;;;;;;;;;6193669;28;20045;-72
2022/04/08 09:08:55;;;;;;;9.00;2.80;;;;;;;;;;6195735;28;20051;-71
2022/04/08 09:11:57;;;;;;;8.27;2.90;;;;;;;;;;6192722;28;20387;-71
2022/04/08 09:15:00;;;;;;;14.02;3.42;;;;;;;;;;6198341;28;20410;-72
2022/04/08 09:18:11;;;;;;;10.73;4.03;;;;;;;;;;6185101;28;20438;-71
2022/04/08 09:21:21;;;;;;;9.57;3.72;;;;;;;;;;6179919;28;20046;-72
2022/04/08 09:24:24;;;;;;;8.88;3.50;;;;;;;;;;6178666;28;20050;-72
2022/04/08 09:27:33;;;;;;;14.13;3.50;;;;;;;;;;6179536;28;20047;-72
2022/04/08 09:30:34;;;;;;;9.63;4.30;;;;;;;;;;6182109;28;20480;-72
2022/04/08 09:33:37;;;;;;;8.73;4.53;;;;;;;;;;6181731;28;20618;-73
2022/04/08 09:36:41;;;;;;;;;;;;;;;;;;6183088;28;20170;-73
2022/04/08 09:39:56;;;;;;;11.75;3.80;;;;;;;;;;6183352;28;19926;-71
2022/04/08 09:42:58;;;;;;;8.73;3.60;;;;;;;;;;6181886;28;20125;-72
2022/04/08 09:46:13;;;;;;;5.93;2.45;;;;;;;;;;6186593;28;20169;-72
2022/04/08 09:49:16;;;;;;;10.07;3.15;;;;;;;;;;6183032;28;20124;-71
2022/04/08 09:52:17;;;;;;;;;;;;;;;;;;6186765;28;20048;-72
2022/04/08 09:55:21;;;;;;;9.15;2.63;;;;;;;;;;6186735;28;19922;-72
2022/04/08 09:58:25;;;;;;;8.40;3.22;;;;;;;;;;6187645;28;20133;-72
2022/04/08 10:01:28;;;;;;;5.30;2.63;;;;;;;;;;6184516;28;20117;-72
2022/04/08 10:04:32;;;;;;;11.07;3.33;;;;;;;;;;6189252;28;20050;-71
2022/04/08 10:07:34;;;;;;;5.40;2.78;;;;;;;;;;6187451;28;20592;-73
2022/04/08 10:10:41;;;;;;;7.33;2.87;;;;;;;;;;6184259;28;20066;-73
2022/04/08 10:13:50;;;;;;;6.72;2.85;;;;;;;;;;6178356;28;20043;-73
2022/04/08 10:16:53;;;;;;;9.93;3.13;;;;;;;;;;6178837;28;20046;-73
2022/04/08 10:20:15;;;;;;;6.90;2.75;;;;;;;;;;6179343;28;20055;-73
2022/04/08 10:23:19;;;;;;;7.25;2.75;;;;;;;;;;6183833;28;20054;-73
2022/04/08 10:26:23;;;;;;;5.38;2.40;;;;;;;;;;6187826;28;20077;-73
2022/04/08 10:29:25;;;;;;;7.70;3.58;;;;;;;;;;6184622;28;20046;-72
2022/04/08 10:32:37;;;;;;;9.27;2.75;;;;;;;;;;6188117;28;20509;-73
2022/04/08 10:35:41;;;;;;;4.55;2.30;;;;;;;;;;6181832;28;20046;-72
2022/04/08 10:38:42;;;;;;;8.75;2.70;;;;;;;;;;6183002;28;20064;-72
2022/04/08 10:41:46;;;;;;;8.15;2.70;;;;;;;;;;6183554;28;20042;-73
2022/04/08 10:44:47;;;;;;;5.72;2.47;;;;;;;;;;6181615;28;20504;-74
2022/04/08 10:47:50;;;;;;;7.95;2.75;;;;;;;;;;6181921;28;20065;-74
2022/04/08 10:51:04;;;;;;;12.27;2.90;;;;;;;;;;6184763;28;20171;-75
2022/04/08 10:54:06;;;;;;;5.63;2.55;;;;;;;;;;6182297;28;20140;-74
2022/04/08 10:57:07;;;;;;;;;;;;;;;;;;6182537;28;20205;-75
2022/04/08 11:00:11;;;;;;;7.63;2.72;;;;;;;;;;6185518;28;19977;-74
2022/04/08 11:03:12;;;;;;;6.93;2.78;;;;;;;;;;6179861;28;20157;-74
2022/04/08 11:06:18;;;;;;;8.15;2.72;;;;;;;;;;6186128;28;20145;-74
2022/04/08 11:09:19;;;;;;;6.30;2.60;;;;;;;;;;6183611;28;20055;-73
2022/04/08 11:12:21;;;;;;;7.43;2.30;;;;;;;;;;6173033;28;20054;-74
2022/04/08 11:15:24;;;;;;;5.60;2.10;;;;;;;;;;6179656;28;20134;-73
2022/04/08 11:18:26;;;;;;;7.97;3.22;;;;;;;;;;6182758;28;20129;-74
2022/04/08 11:21:30;;;;;;;7.60;3.10;;;;;;;;;;6183933;28;20046;-73
2022/04/08 11:24:36;;;;;;;10.75;4.10;;;;;;;;;;6180852;28;20045;-74
2022/04/08 11:27:38;;;;;;;9.27;3.20;;;;;;;;;;6180684;28;20046;-74
2022/04/08 11:30:40;;;;;;;12.65;3.05;;;;;;;;;;6184214;28;20054;-75
2022/04/08 11:33:42;;;;;;;8.05;2.63;;;;;;;;;;6181070;28;20038;-73
2022/04/08 11:36:46;;;;;;;8.48;2.83;;;;;;;;;;6185279;28;20501;-72
2022/04/08 11:39:57;;;;;;;6.05;2.38;;;;;;;;;;6185033;28;20129;-74
2022/04/08 11:43:00;;;;;;;8.23;3.65;;;;;;;;;;6186842;28;20514;-74
2022/04/08 11:46:02;;;;;;;9.57;3.22;;;;;;;;;;6185157;28;20061;-74
2022/04/08 11:49:04;;;;;;;6.07;2.50;;;;;;;;;;6182879;28;20091;-73
2022/04/08 11:52:08;;;;;;;7.90;3.00;;;;;;;;;;6183282;28;20173;-72
2022/04/08 11:55:10;;;;;;;8.70;3.20;;;;;;;;;;6188386;28;20065;-70
2022/04/08 11:58:16;;;;;;;;;;;;;;;;;;6183406;28;20457;-71
2022/04/08 12:01:18;;;;;;;8.38;3.13;;;;;;;;;;6187456;28;20068;-71
2022/04/08 12:04:20;;;;;;;12.57;3.33;;;;;;;;;;6189067;28;20145;-72
2022/04/08 12:07:24;;;;;;;6.43;2.80;;;;;;;;;;6187088;28;20445;-69
2022/04/08 12:10:26;;;;;;;7.63;2.97;;;;;;;;;;6185545;28;20051;-71
2022/04/08 12:13:29;;;;;;;9.60;3.03;;;;;;;;;;6181527;28;20111;-72
2022/04/08 12:16:31;;;;;;;;;;;;;;;;;;6186525;28;20508;-71
2022/04/08 12:19:40;;;;;;;9.27;3.58;;;;;;;;;;6183912;28;19928;-72
2022/04/08 12:22:45;;;;;;;8.60;3.42;;;;;;;;;;6186130;28;20062;-75
2022/04/08 12:25:50;;;;;;;8.43;2.65;;;;;;;;;;6185910;28;20144;-74
2022/04/08 12:28:52;;;;;;;11.13;3.15;;;;;;;;;;6183879;28;20251;-72
2022/04/08 12:31:57;;;;;;;10.05;3.58;;;;;;;;;;6184554;28;20054;-72
2022/04/08 12:34:59;;;;;;;10.85;3.55;;;;;;;;;;6188862;28;20690;-73
2022/04/08 12:38:04;;;;;;;8.80;3.60;;;;;;;;;;6187025;28;20575;-72
2022/04/08 12:41:06;;;;;;;9.77;3.92;;;;;;;;;;6186931;28;20047;-72
2022/04/08 12:44:08;;;;;;;9.38;3.28;;;;;;;;;;6188479;28;20049;-71
2022/04/08 12:47:10;;;;;;;;;;;;;;;;;;6190857;28;20057;-72
2022/04/08 12:50:12;;;;;;;9.88;3.75;;;;;;;;;;6187518;28;19941;-72
2022/04/08 12:53:15;;;;;;;10.82;3.63;;;;;;;;;;6190034;28;20553;-72
2022/04/08 12:56:17;;;;;;;10.30;3.25;;;;;;;;;;6190966;28;20048;-71
2022/04/08 12:59:18;;;;;;;7.80;2.80;;;;;;;;;;6191932;28;20061;-72
2022/04/08 13:02:20;;;;;;;9.50;2.42;;;;;;;;;;6194126;28;20062;-73
2022/04/08 13:05:22;;;;;;;10.48;2.88;;;;;;;;;;6189727;28;20055;-73
2022/04/08 13:08:25;;;;;;;10.68;3.42;;;;;;;;;;6186974;28;20128;-72
2022/04/08 13:11:26;;;;;;;10.18;3.08;;;;;;;;;;6177142;28;20180;-72
2022/04/08 13:14:28;;;;;;;11.93;2.93;;;;;;;;;;6178648;28;20058;-70
2022/04/08 13:17:30;;;;;;;9.00;2.93;;;;;;;;;;6179134;28;20669;-70
2022/04/08 13:20:31;;;;;;;10.10;2.90;;;;;;;;;;6182715;28;20093;-73
2022/04/08 13:23:35;;;;;;;8.03;3.47;;;;;;;;;;6181656;28;20129;-71
2022/04/08 13:26:37;;;;;;;9.25;3.00;;;;;;;;;;6182678;28;20046;-73
2022/04/08 13:29:39;;;;;;;11.48;3.38;;;;;;;;;;6179327;28;20065;-73
2022/04/08 13:32:40;;;;;;;11.23;3.00;;;;;;;;;;6183078;28;20054;-72
2022/04/08 13:35:42;;;;;;;11.13;3.47;;;;;;;;;;6181299;28;20366;-73
2022/04/08 13:38:45;;;;;;;8.47;3.53;;;;;;;;;;6182650;28;20124;-73
2022/04/08 13:41:48;;;;;;;12.93;3.72;;;;;;;;;;6185110;28;20465;-72
2022/04/08 13:44:49;;;;;;;10.60;3.70;;;;;;;;;;6185494;28;20042;-73
2022/04/08 13:47:51;;;;;;;11.73;3.23;;;;;;;;;;6187348;28;20129;-73
2022/04/08 13:50:53;;;;;;;11.32;4.45;;;;;;;;;;6183787;28;20061;-73
2022/04/08 13:53:56;;;;;;;20.40;5.03;;;;;;;;;;6185837;28;20126;-72
2022/04/08 13:56:57;;;;;;;8.95;3.45;;;;;;;;;;6189512;28;20054;-73
2022/04/08 13:59:59;;;;;;;9.10;3.60;;;;;;;;;;6189442;28;20553;-73
2022/04/08 14:03:01;;;;;;;12.30;3.92;;;;;;;;;;6192134;28;20447;-73
2022/04/08 14:06:03;;;;;;;10.17;4.20;;;;;;;;;;6192041;28;20049;-73
2022/04/08 14:09:06;;;;;;;9.32;3.95;;;;;;;;;;6179931;28;20072;-73
2022/04/08 14:12:09;;;;;;;12.68;4.40;;;;;;;;;;6186513;28;20169;-74
2022/04/08 14:15:11;;;;;;;;;;;;;;;;;;6184382;28;20467;-73
2022/04/08 14:18:12;;;;;;;9.18;3.13;;;;;;;;;;6179650;28;19921;-74
2022/04/08 14:21:14;;;;;;;11.87;2.60;;;;;;;;;;6175852;28;20049;-73
2022/04/08 14:24:17;;;;;;;9.93;2.33;;;;;;;;;;6176997;28;20042;-74
2022/04/08 14:27:18;;;;;;;9.20;2.58;;;;;;;;;;6177415;28;20102;-75
2022/04/08 14:30:20;;;;;;;9.63;2.80;;;;;;;;;;6181418;28;20160;-74
2022/04/08 14:33:22;;;;;;;8.88;2.22;;;;;;;;;;6182510;28;26057;-73
2022/04/08 14:36:23;;;;;;;7.85;2.72;;;;;;;;;;6178648;28;20185;-73
2022/04/08 14:39:26;;;;;;;9.97;3.17;;;;;;;;;;6180919;28;20066;-72
2022/04/08 14:42:28;;;;;;;9.73;3.33;;;;;;;;;;6179931;28;20065;-72
2022/04/08 14:45:31;;;;;;;8.00;3.37;;;;;;;;;;6183271;28;20042;-73
2022/04/08 14:48:33;;;;;;;9.32;2.83;;;;;;;;;;6182794;28;20066;-73
2022/04/08 14:51:34;;;;;;;10.70;2.50;;;;;;;;;;6181024;28;20054;-72
2022/04/08 14:54:37;;;;;;;9.23;2.90;;;;;;;;;;6183467;28;20085;-72
2022/04/08 14:57:39;;;;;;;27.67;3.42;;;;;;;;;;6182556;28;20178;-73
2022/04/08 15:00:41;;;;;;;15.80;3.33;;;;;;;;;;6184646;28;20070;-74
2022/04/08 15:03:44;;;;;;;11.90;3.23;;;;;;;;;;6183284;28;20355;-73
2022/04/08 15:06:46;;;;;;;13.75;3.58;;;;;;;;;;6180221;28;20476;-74
2022/04/08 15:09:49;;;;;;;9.95;3.38;;;;;;;;;;6182413;28;20099;-73
2022/04/08 15:12:51;;;;;;;9.50;3.10;;;;;;;;;;6179760;28;20375;-69
2022/04/08 15:15:52;;;;;;;11.68;4.10;;;;;;;;;;6181323;28;20145;-72
2022/04/08 15:18:54;;;;;;;10.00;4.63;;;;;;;;;;6181266;28;20169;-73
2022/04/08 15:21:56;;;;;;;8.93;3.60;;;;;;;;;;6181634;28;20047;-72
2022/04/08 15:24:59;;;;;;;9.52;3.45;;;;;;;;;;6179998;28;20410;-71
2022/04/08 15:28:00;;;;;;;8.55;4.60;;;;;;;;;;6180556;28;20046;-73
2022/04/08 15:31:02;;;;;;;8.75;3.58;;;;;;;;;;6181951;28;20073;-71
2022/04/08 15:34:03;;;;;;;13.98;4.43;;;;;;;;;;6181954;28;20140;-72
2022/04/08 15:37:05;;;;;;;9.07;4.03;;;;;;;;;;6177962;28;20126;-71
2022/04/08 15:40:10;;;;;;;9.55;3.80;;;;;;;;;;6177937;28;20050;-70
2022/04/08 15:43:12;;;;;;;11.63;4.18;;;;;;;;;;6180486;28;20451;-72
2022/04/08 15:46:13;;;;;;;11.13;3.88;;;;;;;;;;6181568;28;20054;-71
2022/04/08 15:49:15;;;;;;;14.43;4.22;;;;;;;;;;6182916;28;20133;-71
2022/04/08 15:52:17;;;;;;;11.57;5.00;;;;;;;;;;6186381;28;20132;-72
2022/04/08 15:55:21;;;;;;;13.02;4.65;;;;;;;;;;6183217;28;20072;-71
2022/04/08 15:58:23;;;;;;;14.80;4.70;;;;;;;;;;6183560;28;20220;-70
2022/04/08 16:01:24;;;;;;;9.77;4.60;;;;;;;;;;6183509;28;20428;-71
2022/04/08 16:04:26;;;;;;;12.00;4.72;;;;;;;;;;6186356;28;20050;-72
2022/04/08 16:07:28;;;;;;;8.45;4.80;;;;;;;;;;6177519;28;20641;-71
2022/04/08 16:10:31;;;;;;;12.80;5.25;;;;;;;;;;6177052;28;20125;-71
2022/04/08 16:13:32;;;;;;;;;;;;;;;;;;6181871;28;20046;-71
2022/04/08 16:16:34;;;;;;;12.93;5.05;;;;;;;;;;6183432;28;20384;-70
2022/04/08 16:19:36;;;;;;;12.30;5.85;;;;;;;;;;6182157;28;20161;-71
2022/04/08 16:22:37;;;;;;;12.23;5.35;;;;;;;;;;6183892;28;20071;-72
2022/04/08 16:25:40;;;;;;;9.85;4.93;;;;;;;;;;6184772;28;20053;-70
2022/04/08 16:28:42;;;;;;;9.27;5.15;;;;;;;;;;6185908;28;20113;-71
2022/04/08 16:31:44;;;;;;;12.43;5.03;;;;;;;;;;6184832;28;20061;-71
2022/04/08 16:34:46;;;;;;;13.60;5.47;;;;;;;;;;6186255;28;20470;-71
2022/04/08 16:37:49;;;;;;;10.48;5.25;;;;;;;;;;6188365;28;20038;-71
2022/04/08 16:40:52;;;;;;;10.63;5.85;;;;;;;;;;6186756;28;20069;-72
2022/04/08 16:43:53;;;;;;;13.27;5.85;;;;;;;;;;6189349;28;20405;-72
2022/04/08 16:46:55;;;;;;;10.57;4.80;;;;;;;;;;6188742;28;20078;-71
2022/04/08 16:49:56;;;;;;;12.10;5.60;;;;;;;;;;6188618;28;20042;-71
2022/04/08 16:52:59;;;;;;;13.77;5.30;;;;;;;;;;6177871;28;20058;-71
2022/04/08 16:56:02;;;;;;;12.90;5.20;;;;;;;;;;6180082;28;20130;-71
2022/04/08 16:59:03;;;;;;;11.93;5.15;;;;;;;;;;6182394;28;20086;-71
2022/04/08 17:02:05;;;;;;;11.98;5.70;;;;;;;;;;6189992;28;20054;-72
2022/04/08 17:05:08;;;;;;;14.93;5.30;;;;;;;;;;6178773;28;20051;-71
2022/04/08 17:08:10;;;;;;;18.05;5.10;;;;;;;;;;6179588;28;20058;-71
2022/04/08 17:11:13;;;;;;;79.88;54.92;;;;;;;;;;6177726;28;20042;-75
2022/04/08 17:14:15;;;;;;;25.42;13.40;;;;;;;;;;6178530;28;20066;-72
2022/04/08 17:17:18;;;;;;;13.77;5.53;;;;;;;;;;6178433;28;20478;-72
2022/04/08 17:20:20;;;;;;;12.02;5.00;;;;;;;;;;6180179;28;20064;-69
2022/04/08 17:23:23;;;;;;;10.77;4.65;;;;;;;;;;6183175;28;20061;-70
2022/04/08 17:26:26;;;;;;;15.88;5.90;;;;;;;;;;6187247;28;20561;-70
2022/04/08 17:29:27;;;;;;;;;;;;;;;;;;6183773;28;20046;-71
2022/04/08 17:32:30;;;;;;;14.70;4.85;;;;;;;;;;6184244;28;20614;-71
2022/04/08 17:35:31;;;;;;;10.03;4.83;;;;;;;;;;6182504;28;20061;-70
2022/04/08 17:38:33;;;;;;;17.90;5.60;;;;;;;;;;6185131;28;20054;-69
2022/04/08 17:41:36;;;;;;;13.65;5.07;;;;;;;;;;6184522;28;20057;-68
2022/04/08 17:44:38;;;;;;;14.80;5.20;;;;;;;;;;6187275;28;20058;-69
2022/04/08 17:47:39;;;;;;;11.70;4.60;;;;;;;;;;6188944;28;20770;-70
2022/04/08 17:50:41;;;;;;;11.68;4.35;;;;;;;;;;6188639;28;20229;-69
2022/04/08 17:53:43;;;;;;;10.45;3.95;;;;;;;;;;6189999;28;20063;-73
2022/04/08 17:56:46;;;;;;;11.60;3.75;;;;;;;;;;6190431;28;20676;-73
2022/04/08 17:59:48;;;;;;;11.90;3.42;;;;;;;;;;6191786;28;20034;-74
2022/04/08 18:02:50;;;;;;;13.25;2.72;;;;;;;;;;6191157;28;20082;-76
2022/04/08 18:05:52;;;;;;;9.17;2.17;;;;;;;;;;6175723;28;20153;-74
2022/04/08 18:08:54;;;;;;;8.98;2.50;;;;;;;;;;6173865;28;20050;-72